Terminal Aerodrome Forecast
Issued by NWS Brownsville, TX

Home | Current Version | Previous Version | Text Only | Print | Product List | Glossary On
Versions: 1 2 3 4 5 6 7 8 9 10 11 12 13 14 15 16 17 18 19
000
FTUS44 KBRO 251624 AAD
TAFBRO
TAF AMD
KBRO 251624Z 2516/2612 33010G17KT P6SM VCSH BKN035 BKN080 OVC090
     FM251700 09010KT P6SM SCT050
      TEMPO 2518/2522 TSRA BKN025CB
     FM260200 09003KT P6SM SCT020=

USA.gov is the U.S. government's official web portal to all federal, state and local government web resources and services.